Time;durP1;ratioP1;P1;durP2;ratioP2;P2;SDS_P1;SDS_P2;PMS_P1;PMS_P2;Temp;Humidity;BMP_temperature;BMP_pressure;BME280_temperature;BME280_humidity;BME280_pressure;Samples;Min_cycle;Max_cycle;Signal;HPM_P1;HPM_P2
2023/04/25 00:01:21;;;;;;;9.67;3.50;;;;;;;7.01;92.50;100030.53;6069431;28;20473;-73
2023/04/25 00:04:17;;;;;;;7.80;3.20;;;;;;;6.98;91.61;100025.56;6050354;28;20033;-73
2023/04/25 00:07:12;;;;;;;12.97;3.23;;;;;;;6.99;92.06;100034.28;6051078;28;20432;-72
2023/04/25 00:10:08;;;;;;;10.75;2.92;;;;;;;6.87;92.41;100022.22;6051047;28;20030;-71
2023/04/25 00:13:04;;;;;;;11.63;3.35;;;;;;;6.87;92.72;100028.34;6050643;28;20080;-73
2023/04/25 00:16:00;;;;;;;11.23;3.00;;;;;;;6.84;92.43;100025.97;6049675;28;20034;-73
2023/04/25 00:18:55;;;;;;;8.55;2.92;;;;;;;6.81;92.54;100022.78;6050538;28;20022;-71
2023/04/25 00:21:50;;;;;;;9.73;2.92;;;;;;;6.85;92.91;100038.16;6050953;28;20038;-73
2023/04/25 00:24:46;;;;;;;8.43;3.50;;;;;;;6.72;92.92;100028.88;6049088;28;20026;-73
2023/04/25 00:27:41;;;;;;;7.40;3.33;;;;;;;6.71;93.95;100028.06;6049792;28;20026;-72
2023/04/25 00:30:36;;;;;;;9.77;3.53;;;;;;;6.65;94.15;100027.78;6050660;28;20033;-73
2023/04/25 00:33:32;;;;;;;7.83;3.10;;;;;;;6.69;94.23;100031.78;6049553;28;20030;-72
2023/04/25 00:36:27;;;;;;;10.63;3.17;;;;;;;6.60;94.50;100015.03;6050700;28;20045;-73
2023/04/25 00:39:22;;;;;;;15.17;3.67;;;;;;;6.67;94.19;100031.94;6050324;28;20405;-71
2023/04/25 00:42:18;;;;;;;9.73;3.13;;;;;;;6.67;93.85;100021.38;6049471;28;20041;-73
2023/04/25 00:45:17;;;;;;;10.70;3.03;;;;;;;6.66;93.87;100034.72;6049711;28;20036;-72
2023/04/25 00:48:13;;;;;;;11.25;3.72;;;;;;;6.77;94.89;100039.81;6049763;28;20068;-73
2023/04/25 00:51:16;;;;;;;12.73;3.00;;;;;;;6.70;93.92;100036.94;6050581;28;20493;-73
2023/04/25 00:54:12;;;;;;;11.05;3.70;;;;;;;6.52;94.79;100036.75;6048367;28;20029;-70
2023/04/25 00:57:07;;;;;;;11.55;3.67;;;;;;;6.48;94.62;100031.91;6048603;28;20048;-72
2023/04/25 01:00:06;;;;;;;9.40;2.80;;;;;;;6.52;94.17;100022.78;6048775;28;20029;-71
2023/04/25 01:03:03;;;;;;;11.90;2.78;;;;;;;6.46;94.31;100012.78;6049581;28;20030;-72
2023/04/25 01:05:58;;;;;;;12.48;3.35;;;;;;;6.36;94.52;99986.44;6047985;28;20029;-73
2023/04/25 01:08:54;;;;;;;11.57;3.50;;;;;;;6.52;95.38;100006.97;6049001;28;20484;-72
2023/04/25 01:11:49;;;;;;;9.25;3.53;;;;;;;6.51;94.74;100008.78;6063720;28;20425;-73
2023/04/25 01:14:45;;;;;;;11.40;3.38;;;;;;;6.51;95.40;100000.03;6048775;28;20061;-72
2023/04/25 01:17:42;;;;;;;14.77;3.65;;;;;;;6.57;95.04;100002.97;6048038;28;20034;-73
2023/04/25 01:20:38;;;;;;;8.93;3.28;;;;;;;6.63;94.94;100009.47;6049528;28;20210;-73
2023/04/25 01:23:34;;;;;;;8.18;3.25;;;;;;;6.50;94.78;99995.72;6048875;28;20423;-73
2023/04/25 01:26:29;;;;;;;7.60;3.10;;;;;;;6.52;94.63;99996.44;6049452;28;20453;-73
2023/04/25 01:29:24;;;;;;;12.70;3.22;;;;;;;6.60;94.66;100017.66;6052019;28;20100;-73
2023/04/25 01:32:20;;;;;;;11.45;3.42;;;;;;;6.58;94.93;100017.78;6049286;28;20477;-73
2023/04/25 01:35:16;;;;;;;8.95;3.15;;;;;;;6.61;94.28;100021.94;6042403;28;20057;-71
2023/04/25 01:38:11;;;;;;;8.73;3.20;;;;;;;6.64;94.15;100016.41;6054065;28;20045;-73
2023/04/25 01:41:07;;;;;;;11.68;4.15;;;;;;;6.63;93.85;100009.47;6051747;28;20062;-72
2023/04/25 01:44:02;;;;;;;11.77;3.50;;;;;;;6.62;94.21;100007.81;6048396;28;20105;-72
2023/04/25 01:46:57;;;;;;;9.75;2.95;;;;;;;6.50;94.47;99993.09;6050680;28;20312;-71
2023/04/25 01:49:53;;;;;;;9.90;3.53;;;;;;;6.44;94.52;99998.94;6054094;28;20030;-72
2023/04/25 01:52:49;;;;;;;7.53;3.57;;;;;;;6.42;94.95;100001.69;6051677;28;20022;-73
2023/04/25 01:55:44;;;;;;;12.15;3.60;;;;;;;6.44;94.22;100014.72;6053232;28;20073;-72
2023/04/25 01:58:39;;;;;;;11.33;3.40;;;;;;;6.44;94.46;100020.81;6040978;28;20029;-72
2023/04/25 02:01:35;;;;;;;8.13;2.97;;;;;;;6.47;95.11;100027.59;6031381;28;20277;-72
2023/04/25 02:04:30;;;;;;;8.83;3.67;;;;;;;6.49;94.90;100025.69;6040265;28;20042;-73
2023/04/25 02:07:26;;;;;;;9.68;3.45;;;;;;;6.44;95.03;100025.28;6075050;28;20389;-72
2023/04/25 02:10:21;;;;;;;11.88;3.88;;;;;;;6.53;95.08;100042.88;6053149;28;20116;-72
2023/04/25 02:13:16;;;;;;;8.87;3.90;;;;;;;6.38;95.61;100024.00;6042868;28;20037;-72
2023/04/25 02:16:12;;;;;;;15.90;4.20;;;;;;;6.41;95.78;100025.53;6045262;28;20276;-72
2023/04/25 02:19:08;;;;;;;11.40;4.95;;;;;;;6.50;95.98;100046.59;6053564;28;20671;-72
2023/04/25 02:22:03;;;;;;;8.70;3.47;;;;;;;6.50;96.29;100057.13;6045681;28;20038;-72
2023/04/25 02:24:58;;;;;;;12.60;4.07;;;;;;;6.47;96.42;100048.66;6051656;28;20033;-72
2023/04/25 02:27:54;;;;;;;11.27;3.90;;;;;;;6.51;96.79;100057.97;6047237;28;20448;-72
2023/04/25 02:30:49;;;;;;;10.02;4.38;;;;;;;6.52;96.88;100054.38;6047680;28;20029;-73
2023/04/25 02:33:45;;;;;;;10.33;4.77;;;;;;;6.36;97.13;100033.03;6048800;28;20038;-71
2023/04/25 02:36:40;;;;;;;13.40;4.30;;;;;;;6.46;97.33;100045.22;6046060;28;20054;-71
2023/04/25 02:39:36;;;;;;;9.68;4.15;;;;;;;6.46;97.63;100050.50;6043341;28;20075;-72
2023/04/25 02:42:31;;;;;;;10.77;3.83;;;;;;;6.35;98.16;100036.59;6045913;28;20041;-72
2023/04/25 02:45:26;;;;;;;9.75;4.13;;;;;;;6.30;97.73;100030.91;6050877;28;20036;-73
2023/04/25 02:48:22;;;;;;;11.10;3.80;;;;;;;6.37;98.24;100040.75;6052787;28;20488;-71
2023/04/25 02:51:17;;;;;;;10.17;4.30;;;;;;;6.38;99.05;100044.25;6052234;28;20079;-72
2023/04/25 02:54:12;;;;;;;11.50;4.83;;;;;;;6.40;99.11;100055.47;6051956;28;20033;-73
2023/04/25 02:57:08;;;;;;;13.00;3.77;;;;;;;6.35;100.00;100036.59;6052070;28;20132;-71
2023/04/25 03:00:05;;;;;;;15.20;4.35;;;;;;;6.26;100.00;100058.47;6052640;28;20026;-71
2023/04/25 03:03:00;;;;;;;11.23;3.70;;;;;;;6.01;100.00;100048.44;6052319;28;20029;-71
2023/04/25 03:05:55;;;;;;;11.67;4.43;;;;;;;5.91;100.00;100043.97;6050962;28;20372;-71
2023/04/25 03:08:50;;;;;;;14.07;4.53;;;;;;;5.90;100.00;100065.97;6052190;28;20502;-72
2023/04/25 03:11:46;;;;;;;17.97;4.20;;;;;;;5.96;100.00;100083.88;6052226;28;20088;-71
2023/04/25 03:14:41;;;;;;;11.53;4.33;;;;;;;5.89;100.00;100071.38;6051441;28;20033;-72
2023/04/25 03:17:36;;;;;;;21.73;4.50;;;;;;;5.76;100.00;100066.28;6051852;28;20476;-71
2023/04/25 03:20:31;;;;;;;10.47;3.47;;;;;;;5.79;100.00;100088.84;6051913;28;20044;-73
2023/04/25 03:23:27;;;;;;;14.53;3.57;;;;;;;5.77;100.00;100090.78;6051400;28;20133;-71
2023/04/25 03:26:22;;;;;;;9.00;2.93;;;;;;;5.73;100.00;100086.78;6051217;28;20108;-71
2023/04/25 03:29:17;;;;;;;9.17;2.97;;;;;;;5.49;100.00;100066.00;6073012;28;20025;-71
2023/04/25 03:32:13;;;;;;;10.37;3.87;;;;;;;5.55;100.00;100081.25;6064394;28;20026;-72
2023/04/25 03:35:08;;;;;;;16.07;3.23;;;;;;;5.47;100.00;100086.34;6051176;28;20113;-72
2023/04/25 03:38:03;;;;;;;13.60;4.13;;;;;;;5.45;100.00;100097.94;6051992;28;20074;-71
2023/04/25 03:40:59;;;;;;;13.27;3.00;;;;;;;5.40;100.00;100103.59;6051444;28;20073;-71
2023/04/25 03:43:54;;;;;;;10.10;3.60;;;;;;;5.38;100.00;100095.03;6058863;28;20417;-73
2023/04/25 03:46:50;;;;;;;17.08;3.75;;;;;;;5.28;100.00;100094.09;6066951;28;20222;-72
2023/04/25 03:49:45;;;;;;;12.03;2.80;;;;;;;5.34;100.00;100112.84;6051607;28;20421;-71
2023/04/25 03:52:40;;;;;;;15.90;3.07;;;;;;;5.38;100.00;100123.94;6051702;28;20436;-72
2023/04/25 03:55:35;;;;;;;15.27;3.43;;;;;;;5.39;100.00;100123.78;6050558;28;20265;-71
2023/04/25 03:58:31;;;;;;;13.10;3.67;;;;;;;5.40;100.00;100125.47;6051362;28;20457;-73
2023/04/25 04:01:26;;;;;;;13.33;2.70;;;;;;;5.43;100.00;100132.28;6051302;28;20064;-72
2023/04/25 04:04:21;;;;;;;16.30;3.67;;;;;;;5.46;100.00;100137.28;6050518;28;20029;-73
2023/04/25 04:07:17;;;;;;;20.70;3.20;;;;;;;5.41;100.00;100123.66;6051380;28;20050;-72
2023/04/25 04:10:12;;;;;;;13.70;3.27;;;;;;;5.51;100.00;100140.34;6050748;28;20025;-74
2023/04/25 04:13:07;;;;;;;10.67;3.43;;;;;;;5.43;100.00;100131.44;6059321;28;20022;-73
2023/04/25 04:16:04;;;;;;;14.47;3.20;;;;;;;5.55;100.00;100148.78;6050479;28;20265;-73
2023/04/25 04:18:59;;;;;;;13.68;3.53;;;;;;;5.46;100.00;100134.66;6049262;28;20030;-72
2023/04/25 04:21:54;;;;;;;12.53;3.00;;;;;;;5.47;100.00;100130.19;6070387;28;20087;-73
2023/04/25 04:24:50;;;;;;;16.40;3.23;;;;;;;5.47;100.00;100138.91;6051935;28;20037;-72
2023/04/25 04:27:45;;;;;;;16.70;2.67;;;;;;;5.51;100.00;100150.88;6058420;28;20024;-72
2023/04/25 04:30:42;;;;;;;6.45;2.85;;;;;;;5.58;100.00;100167.78;6072506;28;20052;-72
2023/04/25 04:33:37;;;;;;;18.42;3.70;;;;;;;5.47;100.00;100152.06;6056579;28;20539;-72
2023/04/25 04:36:33;;;;;;;12.97;2.73;;;;;;;5.48;100.00;100153.75;6050423;28;20034;-72
2023/04/25 04:39:28;;;;;;;16.42;2.83;;;;;;;5.61;100.00;100178.06;6050066;28;20288;-72
2023/04/25 04:42:24;;;;;;;12.98;2.90;;;;;;;5.67;100.00;100180.19;6050405;28;20029;-72
2023/04/25 04:45:20;;;;;;;15.80;2.80;;;;;;;5.53;100.00;100172.59;6049845;28;20030;-72
2023/04/25 04:48:16;;;;;;;10.52;3.00;;;;;;;5.54;100.00;100171.66;6049795;28;20022;-72
2023/04/25 04:51:12;;;;;;;10.98;2.75;;;;;;;5.67;100.00;100182.81;6050541;28;20022;-72
2023/04/25 04:54:07;;;;;;;17.57;3.00;;;;;;;5.60;100.00;100176.38;6049326;28;20381;-72
2023/04/25 04:57:02;;;;;;;10.47;2.70;;;;;;;5.68;100.00;100184.47;6049800;28;20038;-73
2023/04/25 04:59:58;;;;;;;11.60;3.27;;;;;;;5.64;100.00;100176.97;6049032;28;20042;-73
2023/04/25 05:02:53;;;;;;;19.52;2.97;;;;;;;5.61;100.00;100178.06;6049818;28;20044;-72
2023/04/25 05:05:49;;;;;;;12.73;2.47;;;;;;;5.73;99.55;100194.63;6049205;28;20037;-73
2023/04/25 05:08:44;;;;;;;8.27;2.70;;;;;;;5.80;98.93;100196.59;6049459;28;20047;-72
2023/04/25 05:11:39;;;;;;;13.45;2.97;;;;;;;5.82;98.53;100206.97;6049257;28;20030;-73
2023/04/25 05:14:35;;;;;;;20.37;3.00;;;;;;;5.92;97.95;100213.19;6048631;28;20373;-72
2023/04/25 05:17:30;;;;;;;12.53;2.63;;;;;;;5.97;97.85;100217.13;6048906;28;20033;-73
2023/04/25 05:20:25;;;;;;;12.55;2.25;;;;;;;5.96;96.33;100211.97;6049444;28;20372;-73
2023/04/25 05:23:21;;;;;;;10.00;2.80;;;;;;;6.01;95.91;100201.06;6048651;28;20389;-73
2023/04/25 05:26:16;;;;;;;15.57;2.90;;;;;;;6.25;94.70;100225.31;6058514;28;20025;-72
2023/04/25 05:29:11;;;;;;;9.73;2.13;;;;;;;6.26;94.93;100204.09;6051354;28;20109;-71
2023/04/25 05:32:07;;;;;;;12.00;3.00;;;;;;;6.17;92.74;100199.63;6072962;28;20406;-73
2023/04/25 05:35:02;;;;;;;15.38;2.50;;;;;;;6.28;92.34;100223.22;6049476;28;20037;-73
2023/04/25 05:37:58;;;;;;;21.67;3.53;;;;;;;6.19;91.41;100231.94;6048981;28;20030;-73
2023/04/25 05:40:53;;;;;;;8.23;1.97;;;;;;;6.20;92.72;100238.00;6049129;28;20080;-72
2023/04/25 05:43:49;;;;;;;21.53;3.03;;;;;;;6.20;92.19;100238.00;6048621;28;20026;-72
2023/04/25 05:46:44;;;;;;;14.27;2.83;;;;;;;6.03;90.93;100230.72;6049002;28;20034;-72
2023/04/25 05:49:39;;;;;;;9.87;2.03;;;;;;;6.09;89.13;100248.63;6049124;28;20029;-74
2023/04/25 05:52:35;;;;;;;12.33;3.07;;;;;;;6.14;88.26;100251.72;6049133;28;20099;-73
2023/04/25 05:55:30;;;;;;;16.43;3.40;;;;;;;6.16;88.40;100236.59;6048376;28;20045;-72
2023/04/25 05:58:25;;;;;;;13.50;2.73;;;;;;;6.35;88.01;100257.78;6048597;28;20034;-73
2023/04/25 06:01:22;;;;;;;16.52;2.35;;;;;;;6.41;86.60;100242.28;6049258;28;20445;-73
2023/04/25 06:04:17;;;;;;;13.00;2.78;;;;;;;6.82;84.75;100256.34;6048574;28;20513;-74
2023/04/25 06:07:13;;;;;;;15.53;2.67;;;;;;;7.07;83.89;100261.94;6052242;28;20036;-73
2023/04/25 06:10:08;;;;;;;17.00;2.70;;;;;;;7.18;80.22;100264.47;6060638;28;20041;-73
2023/04/25 06:13:04;;;;;;;13.32;2.25;;;;;;;7.43;81.11;100259.66;6048859;28;20509;-73
2023/04/25 06:15:59;;;;;;;11.15;1.95;;;;;;;7.91;77.82;100268.41;6048227;28;20050;-74
2023/04/25 06:18:55;;;;;;;11.93;2.03;;;;;;;7.67;77.46;100254.81;6048501;28;20472;-73
2023/04/25 06:21:50;;;;;;;11.30;1.97;;;;;;;7.85;77.31;100269.00;6050580;28;20269;-72
2023/04/25 06:24:46;;;;;;;8.27;2.30;;;;;;;7.59;75.20;100273.13;6052768;28;20480;-72
2023/04/25 06:27:41;;;;;;;12.02;2.70;;;;;;;7.34;74.72;100268.41;6052061;28;20273;-74
2023/04/25 06:30:36;;;;;;;13.83;3.10;;;;;;;7.40;74.72;100289.78;6052730;28;20040;-73
2023/04/25 06:33:31;;;;;;;13.43;2.23;;;;;;;7.10;72.09;100277.50;6052440;28;20121;-73
2023/04/25 06:36:27;;;;;;;9.37;1.93;;;;;;;7.07;74.40;100269.84;6052864;28;20458;-74
2023/04/25 06:39:24;;;;;;;11.18;2.28;;;;;;;7.09;69.57;100288.19;6052393;28;20453;-73
2023/04/25 06:42:19;;;;;;;12.25;2.72;;;;;;;7.12;69.93;100278.19;6052863;28;20028;-73
2023/04/25 06:45:15;;;;;;;17.07;2.23;;;;;;;7.52;68.62;100270.25;6052360;28;20042;-73
2023/04/25 06:48:10;;;;;;;5.93;1.40;;;;;;;7.94;67.19;100297.19;6053138;28;20065;-72
2023/04/25 06:51:05;;;;;;;8.53;1.93;;;;;;;7.81;65.38;100304.53;6051323;28;20299;-73
2023/04/25 06:54:01;;;;;;;9.67;1.50;;;;;;;7.62;62.89;100279.00;6079579;28;20029;-71
2023/04/25 06:56:56;;;;;;;9.60;1.85;;;;;;;7.47;64.65;100293.56;6052084;28;20465;-71
2023/04/25 06:59:52;;;;;;;6.53;1.40;;;;;;;7.51;62.21;100292.31;6051052;28;20022;-73
2023/04/25 07:02:47;;;;;;;8.10;1.60;;;;;;;7.79;60.98;100290.66;6066756;28;20488;-73
2023/04/25 07:05:42;;;;;;;8.63;1.53;;;;;;;7.72;61.10;100279.81;6056622;28;20476;-72
2023/04/25 07:08:37;;;;;;;10.23;1.80;;;;;;;7.60;60.90;100295.94;6050977;28;20037;-72
2023/04/25 07:11:33;;;;;;;13.30;2.23;;;;;;;7.69;60.47;100308.31;6051965;28;20155;-71
2023/04/25 07:14:28;;;;;;;9.37;1.87;;;;;;;7.61;60.47;100308.16;6050373;28;20030;-72
2023/04/25 07:17:23;;;;;;;9.17;2.20;;;;;;;8.12;61.76;100303.44;6051705;28;20025;-71
2023/04/25 07:20:19;;;;;;;11.07;1.67;;;;;;;8.30;57.70;100296.50;6051101;28;20112;-72
2023/04/25 07:23:14;;;;;;;7.13;1.63;;;;;;;8.09;57.52;100298.44;6051200;28;20083;-73
2023/04/25 07:26:09;;;;;;;8.95;1.70;;;;;;;8.25;60.13;100298.69;6049926;28;20037;-72
2023/04/25 07:29:05;;;;;;;14.93;2.20;;;;;;;8.10;55.65;100310.66;6050697;28;20025;-72
2023/04/25 07:32:00;;;;;;;17.38;3.25;;;;;;;8.05;57.02;100327.88;6049567;28;20025;-72
2023/04/25 07:34:55;;;;;;;10.93;1.67;;;;;;;8.17;58.15;100298.56;6048549;28;20457;-73
2023/04/25 07:37:51;;;;;;;6.30;2.20;;;;;;;8.47;57.81;100302.03;6049691;28;20044;-74
2023/04/25 07:40:47;;;;;;;13.23;2.30;;;;;;;8.37;58.41;100300.22;6049543;28;20034;-73
2023/04/25 07:43:43;;;;;;;10.35;1.58;;;;;;;8.16;58.94;100314.53;6051631;28;20022;-72
2023/04/25 07:46:38;;;;;;;5.73;1.30;;;;;;;8.03;58.54;100301.63;6055743;28;20036;-73
2023/04/25 07:49:35;;;;;;;8.57;1.87;;;;;;;7.94;58.24;100310.38;6050143;28;20026;-73
2023/04/25 07:52:30;;;;;;;8.20;1.55;;;;;;;7.96;60.58;100318.19;6050000;28;20037;-74
2023/04/25 07:55:26;;;;;;;8.57;1.60;;;;;;;7.94;61.01;100299.81;6049160;28;20042;-73
2023/04/25 07:58:21;;;;;;;7.38;1.92;;;;;;;8.22;61.52;100301.63;6049767;28;20048;-72
2023/04/25 08:01:17;;;;;;;7.30;1.92;;;;;;;8.42;61.13;100305.09;6049242;28;20033;-72
2023/04/25 08:04:12;;;;;;;7.57;1.37;;;;;;;8.36;59.90;100316.22;6048716;28;20038;-71
2023/04/25 08:07:07;;;;;;;10.73;1.90;;;;;;;8.21;62.25;100315.78;6049653;28;20855;-72
2023/04/25 08:10:03;;;;;;;6.87;2.03;;;;;;;7.92;64.62;100337.88;6049758;28;20057;-72
2023/04/25 08:12:59;;;;;;;13.15;2.05;;;;;;;7.68;65.59;100333.00;6049447;28;20022;-71
2023/04/25 08:15:54;;;;;;;4.88;1.75;;;;;;;7.47;66.76;100348.97;6049215;28;20061;-71
2023/04/25 08:18:50;;;;;;;6.27;2.13;;;;;;;7.38;66.89;100333.09;6049943;28;20063;-74
2023/04/25 08:21:45;;;;;;;7.05;1.85;;;;;;;7.60;67.19;100352.19;6050418;28;20072;-72
2023/04/25 08:24:41;;;;;;;8.83;1.97;;;;;;;8.10;66.25;100352.91;6049376;28;20092;-72
2023/04/25 08:27:36;;;;;;;11.32;1.83;;;;;;;8.05;64.86;100357.78;6049885;28;20535;-71
2023/04/25 08:30:32;;;;;;;9.73;1.77;;;;;;;7.98;64.11;100371.66;6050161;28;20096;-71
2023/04/25 08:33:28;;;;;;;8.37;1.80;;;;;;;8.08;62.91;100360.13;6048889;28;20033;-71
2023/04/25 08:36:23;;;;;;;5.57;1.50;;;;;;;8.02;62.71;100375.69;6049797;28;20475;-72
2023/04/25 08:39:20;;;;;;;4.10;1.40;;;;;;;8.19;60.01;100365.28;6049173;28;20037;-72
2023/04/25 08:42:15;;;;;;;14.40;1.52;;;;;;;8.00;59.43;100367.91;6049983;28;20030;-73
2023/04/25 08:45:11;;;;;;;10.47;2.00;;;;;;;8.00;59.68;100367.91;6048153;28;20046;-72
2023/04/25 08:48:10;;;;;;;10.40;1.70;;;;;;;8.22;59.56;100365.00;6048628;28;20025;-72
2023/04/25 08:51:07;;;;;;;9.10;1.67;;;;;;;8.69;58.21;100380.97;6049267;28;20038;-72
2023/04/25 08:54:10;;;;;;;7.00;1.90;;;;;;;9.22;58.98;100384.72;6047050;28;20033;-74
2023/04/25 08:57:06;;;;;;;5.80;1.30;;;;;;;9.12;56.10;100369.84;6051946;28;20030;-71
2023/04/25 09:00:03;;;;;;;7.53;1.88;;;;;;;9.51;55.17;100374.81;6045196;28;20481;-71
2023/04/25 09:02:59;;;;;;;5.40;1.45;;;;;;;9.63;52.85;100362.22;6048841;28;20018;-72
2023/04/25 09:05:55;;;;;;;4.63;1.33;;;;;;;9.56;51.54;100383.16;6047555;28;20032;-71
2023/04/25 09:08:50;;;;;;;3.97;1.20;;;;;;;9.21;51.35;100376.94;6051267;28;20034;-71
2023/04/25 09:11:45;;;;;;;3.43;0.93;;;;;;;8.74;52.90;100376.09;6047951;28;20026;-71
2023/04/25 09:14:42;;;;;;;7.57;1.43;;;;;;;8.66;53.88;100395.31;6053767;28;20268;-71
2023/04/25 09:17:40;;;;;;;7.85;1.70;;;;;;;8.63;55.56;100423.81;6076146;28;20014;-73
2023/04/25 09:20:44;;;;;;;5.47;1.13;;;;;;;8.40;55.99;100414.53;6050230;28;20081;-71
2023/04/25 09:23:44;;;;;;;3.05;1.20;;;;;;;8.33;57.03;100404.53;6047947;28;20484;-72
2023/04/25 09:26:39;;;;;;;7.82;1.73;;;;;;;8.20;56.67;100411.88;6045586;28;20432;-73
2023/04/25 09:29:37;;;;;;;7.43;1.43;;;;;;;8.24;58.10;100429.09;6050498;28;20018;-73
2023/04/25 09:32:32;;;;;;;6.93;1.63;;;;;;;8.08;56.75;100418.22;6050076;28;20030;-72
2023/04/25 09:35:27;;;;;;;5.13;1.20;;;;;;;8.14;54.98;100449.38;6047341;28;20362;-73
2023/04/25 09:42:16;;;;;;;6.13;1.55;;;;;;;8.54;57.18;100446.63;6045637;28;20269;-72
2023/04/25 09:45:12;;;;;;;6.43;1.55;;;;;;;8.77;57.20;100458.59;6048027;28;20182;-73
2023/04/25 09:48:07;;;;;;;10.15;1.60;;;;;;;8.86;56.34;100451.63;6048358;28;20037;-72
2023/04/25 09:51:03;;;;;;;4.93;1.00;;;;;;;8.78;56.63;100451.47;6049086;28;20424;-71
2023/04/25 09:53:58;;;;;;;6.47;1.42;;;;;;;9.10;56.58;100433.50;6047310;28;20068;-71
2023/04/25 09:56:53;;;;;;;5.47;1.40;;;;;;;9.51;55.32;100442.81;6050137;28;20049;-73
2023/04/25 09:59:53;;;;;;;5.93;1.58;;;;;;;9.45;54.83;100433.66;6052608;28;20492;-74
2023/04/25 10:02:48;;;;;;;6.68;1.60;;;;;;;8.76;53.84;100430.50;6052101;28;20038;-73
2023/04/25 10:05:44;;;;;;;4.13;1.02;;;;;;;8.74;53.62;100429.81;6051364;28;20021;-72
2023/04/25 10:08:40;;;;;;;5.50;1.83;;;;;;;8.71;52.23;100445.09;6051271;28;20030;-73
2023/04/25 10:11:36;;;;;;;5.18;1.40;;;;;;;8.72;51.29;100441.50;6051265;28;20029;-72
2023/04/25 10:14:32;;;;;;;6.47;1.45;;;;;;;8.85;52.40;100460.53;6051870;28;20041;-73
2023/04/25 10:17:30;;;;;;;5.28;0.95;;;;;;;9.29;49.57;100454.59;6064481;28;20404;-73
2023/04/25 10:20:25;;;;;;;6.20;1.20;;;;;;;9.96;47.81;100445.50;6051703;28;20030;-73
2023/04/25 10:23:21;;;;;;;3.07;1.00;;;;;;;9.95;47.34;100441.19;6048707;28;20087;-73
2023/04/25 10:26:16;;;;;;;2.97;0.82;;;;;;;9.85;46.39;100456.28;6051300;28;20261;-73
2023/04/25 10:29:12;;;;;;;5.07;1.00;;;;;;;9.82;47.22;100457.44;6058247;28;20033;-72
2023/04/25 10:32:07;;;;;;;5.27;1.33;;;;;;;10.04;47.02;100445.59;6052385;28;20466;-71
2023/04/25 10:35:19;;;;;;;5.63;1.23;;;;;;;9.83;47.20;100442.38;6052346;28;20272;-72
2023/04/25 10:38:15;;;;;;;5.18;1.25;;;;;;;9.50;48.46;100457.88;6049583;28;20061;-72
2023/04/25 10:41:12;;;;;;;5.53;1.87;;;;;;;8.97;50.18;100465.53;6050507;28;20034;-73
2023/04/25 10:44:08;;;;;;;7.82;1.35;;;;;;;8.88;52.04;100460.25;6050456;28;20315;-72
2023/04/25 10:47:06;;;;;;;4.60;1.20;;;;;;;8.90;51.86;100472.38;6051071;28;20030;-73
2023/04/25 10:50:06;;;;;;;3.25;1.23;;;;;;;9.07;51.29;100478.75;6051681;28;20132;-72
2023/04/25 10:53:14;;;;;;;4.18;1.35;;;;;;;9.09;50.55;100458.25;6051302;28;20136;-73
2023/04/25 10:56:20;;;;;;;3.65;1.33;;;;;;;9.15;51.04;100454.22;6051232;28;20026;-73
2023/04/25 10:59:17;;;;;;;4.70;1.10;;;;;;;8.89;50.01;100464.56;6051391;28;20064;-73
2023/04/25 11:02:15;;;;;;;4.25;1.00;;;;;;;8.77;51.83;100474.47;6050995;28;20093;-74
2023/04/25 11:05:12;;;;;;;8.15;1.35;;;;;;;8.41;53.39;100472.50;6055869;28;20030;-71
2023/04/25 11:08:11;;;;;;;4.93;1.10;;;;;;;8.04;55.77;100490.78;6049089;28;20497;-71
2023/04/25 11:11:07;;;;;;;7.20;1.25;;;;;;;7.85;56.66;100503.09;6051435;28;20022;-72
2023/04/25 11:14:03;;;;;;;4.28;1.40;;;;;;;7.91;58.93;100503.38;6049176;28;20117;-74
2023/04/25 11:16:59;;;;;;;6.57;1.37;;;;;;;8.01;59.38;100516.63;6055137;28;20365;-72
2023/04/25 11:19:56;;;;;;;5.13;1.30;;;;;;;7.93;59.82;100519.09;6050621;28;20022;-73
2023/04/25 11:22:51;;;;;;;10.65;1.55;;;;;;;7.99;59.61;100505.38;6050959;28;20030;-72
2023/04/25 11:25:47;;;;;;;9.30;1.92;;;;;;;8.25;58.51;100514.44;6050109;28;20141;-72
2023/04/25 11:28:45;;;;;;;12.55;1.90;;;;;;;8.38;58.90;100496.56;6050453;28;20106;-73
2023/04/25 11:31:45;;;;;;;6.15;1.20;;;;;;;8.61;58.75;100513.00;6050384;28;20026;-73
2023/04/25 11:34:43;;;;;;;2.80;0.90;;;;;;;8.92;55.23;100510.06;6050512;28;20029;-73
2023/04/25 11:37:39;;;;;;;5.32;1.08;;;;;;;8.90;52.74;100500.59;6049260;28;20091;-74
2023/04/25 11:40:35;;;;;;;4.50;1.20;;;;;;;9.20;51.44;100518.94;6060709;28;20014;-74
2023/04/25 11:43:30;;;;;;;4.43;0.95;;;;;;;9.62;50.48;100497.38;6070082;28;20381;-73
2023/04/25 11:46:26;;;;;;;5.17;1.50;;;;;;;9.86;49.45;100510.94;6049947;28;20604;-73
2023/04/25 11:49:21;;;;;;;3.17;0.75;;;;;;;9.67;49.98;100489.84;6049968;28;20038;-73
2023/04/25 11:52:17;;;;;;;6.45;1.20;;;;;;;10.11;49.56;100495.19;6050025;28;20026;-73
2023/04/25 11:55:14;;;;;;;2.80;0.90;;;;;;;10.12;48.59;100493.38;6048717;28;20041;-74
2023/04/25 11:58:09;;;;;;;3.88;0.90;;;;;;;9.87;48.64;100507.28;6049801;28;20022;-73
2023/04/25 12:01:04;;;;;;;3.10;1.00;;;;;;;9.65;47.93;100513.78;6050637;28;20036;-72
2023/04/25 12:04:20;;;;;;;3.43;0.80;;;;;;;9.75;46.18;100519.91;6051269;28;20037;-72
2023/04/25 12:07:15;;;;;;;3.00;0.70;;;;;;;9.73;44.04;100508.59;6047755;28;20051;-73
2023/04/25 12:10:13;;;;;;;6.33;1.10;;;;;;;9.91;45.92;100513.97;6050236;28;20042;-72
2023/04/25 12:13:26;;;;;;;2.10;0.70;;;;;;;9.55;47.28;100513.00;6049905;28;20025;-72
2023/04/25 12:16:21;;;;;;;3.78;1.00;;;;;;;9.19;49.86;100533.16;6050209;28;20033;-73
2023/04/25 12:19:19;;;;;;;4.43;1.10;;;;;;;8.71;53.78;100542.91;6049465;28;20454;-72
2023/04/25 12:22:23;;;;;;;4.60;1.17;;;;;;;8.33;53.94;100525.19;6049582;28;20037;-71
2023/04/25 12:25:42;;;;;;;1.98;0.70;;;;;;;8.17;49.91;100552.13;6049421;28;20033;-72
2023/04/25 12:28:37;;;;;;;2.67;0.90;;;;;;;7.94;52.58;100536.59;6039067;28;20473;-72
2023/04/25 12:31:32;;;;;;;5.20;0.73;;;;;;;7.78;54.69;100553.75;6049957;28;20033;-73
2023/04/25 12:34:28;;;;;;;2.35;0.80;;;;;;;7.77;55.74;100561.81;6048692;28;20030;-72
2023/04/25 12:37:23;;;;;;;1.73;0.60;;;;;;;7.79;53.95;100544.88;6049727;28;20109;-73
2023/04/25 12:40:18;;;;;;;5.10;0.50;;;;;;;8.19;52.79;100566.00;6049319;28;20025;-72
2023/04/25 12:43:14;;;;;;;2.17;0.60;;;;;;;8.36;51.91;100544.28;6049030;28;20030;-73
2023/04/25 12:46:09;;;;;;;7.73;1.17;;;;;;;8.50;52.83;100552.78;6046287;28;20481;-72
2023/04/25 12:49:06;;;;;;;3.03;0.93;;;;;;;9.20;52.94;100553.34;6047248;28;20481;-73
2023/04/25 12:52:01;;;;;;;3.80;1.75;;;;;;;10.19;52.10;100560.75;6049191;28;20038;-73
2023/04/25 12:54:56;;;;;;;3.07;1.10;;;;;;;10.65;52.23;100547.31;6048226;28;20350;-72
2023/04/25 12:57:52;;;;;;;4.50;1.27;;;;;;;10.96;51.33;100562.84;6048289;28;20026;-73
2023/04/25 13:00:47;;;;;;;5.68;1.15;;;;;;;10.66;50.96;100569.38;6048238;28;20026;-72
2023/04/25 13:03:43;;;;;;;5.00;1.02;;;;;;;10.33;50.45;100549.63;6048041;28;20101;-73
2023/04/25 13:06:38;;;;;;;3.60;1.00;;;;;;;9.99;53.05;100561.75;6048264;28;20037;-73
2023/04/25 13:09:33;;;;;;;4.17;1.07;;;;;;;9.92;52.08;100553.56;6048290;28;20037;-72
2023/04/25 13:12:29;;;;;;;4.70;0.87;;;;;;;9.61;52.13;100567.19;6048204;28;20469;-73
2023/04/25 13:15:24;;;;;;;4.37;1.00;;;;;;;9.30;52.93;100562.09;6047257;28;20026;-73
2023/04/25 13:18:20;;;;;;;2.33;0.90;;;;;;;9.01;53.26;100555.16;6049756;28;20038;-73
2023/04/25 13:21:15;;;;;;;5.10;0.90;;;;;;;8.87;54.03;100565.19;6049873;28;20357;-73
2023/04/25 13:24:10;;;;;;;2.87;0.87;;;;;;;8.75;54.38;100557.53;6047952;28;20276;-71
2023/04/25 13:27:05;;;;;;;2.63;0.70;;;;;;;8.67;53.50;100571.41;6049012;28;20281;-72
2023/04/25 13:30:06;;;;;;;3.00;0.70;;;;;;;8.56;53.53;100570.72;6049597;28;20095;-73
2023/04/25 13:33:03;;;;;;;3.75;0.77;;;;;;;8.74;51.08;100592.88;6051977;28;20031;-73
2023/04/25 13:36:00;;;;;;;0.80;0.35;;;;;;;8.79;46.15;100580.06;6051611;28;20101;-72
2023/04/25 13:38:56;;;;;;;1.60;0.63;;;;;;;9.33;43.56;100596.22;6047616;28;20041;-73
2023/04/25 13:41:51;;;;;;;1.30;0.43;;;;;;;9.47;44.35;100579.06;6048280;28;20065;-73
2023/04/25 13:44:46;;;;;;;3.80;0.90;;;;;;;9.81;43.51;100579.41;6048272;28;20029;-72
2023/04/25 13:47:41;;;;;;;2.33;0.80;;;;;;;9.26;45.14;100592.47;6049829;28;20083;-72